TimeEST,TemperatureF,Dew PointF,Humidity,Sea Level PressureIn,VisibilityMPH,Wind Direction,Wind SpeedMPH,Gust SpeedMPH,PrecipitationIn,Events,Conditions,WindDirDegrees,DateUTC
12:53 AM,21.9,3.0,44,30.17,10.0,North,6.9,-,N/A,,Clear,360,2013-01-03 05:53:00
1:53 AM,19.9,-0.9,40,30.18,10.0,NNW,9.2,-,N/A,,Clear,340,2013-01-03 06:53:00
2:53 AM,18.0,-0.9,44,30.17,10.0,NNE,6.9,-,N/A,,Clear,20,2013-01-03 07:53:00
3:53 AM,16.0,-0.9,47,30.17,10.0,NNW,3.5,-,N/A,,Clear,340,2013-01-03 08:53:00
4:53 AM,15.1,-2.0,47,30.17,10.0,North,3.5,-,N/A,,Clear,350,2013-01-03 09:53:00
5:53 AM,12.9,-2.0,51,30.18,10.0,NW,3.5,-,N/A,,Clear,310,2013-01-03 10:53:00
6:53 AM,8.1,-0.9,67,30.19,10.0,Calm,Calm,-,N/A,,Clear,0,2013-01-03 11:53:00
7:53 AM,8.1,-0.9,67,30.19,10.0,Calm,Calm,-,N/A,,Clear,0,2013-01-03 12:53:00
8:53 AM,12.9,-2.9,49,30.19,10.0,WNW,3.5,-,N/A,,Clear,300,2013-01-03 13:53:00
9:53 AM,16.0,-0.9,47,30.20,10.0,NNW,4.6,-,N/A,,Clear,330,2013-01-03 14:53:00
10:53 AM,19.9,3.9,50,30.17,10.0,Calm,Calm,-,N/A,,Clear,0,2013-01-03 15:53:00
11:53 AM,24.1,6.1,46,30.13,10.0,Calm,Calm,-,N/A,,Clear,0,2013-01-03 16:53:00
12:53 PM,28.0,10.0,47,30.09,10.0,WNW,10.4,-,0.00,,Clear,290,2013-01-03 17:53:00
1:53 PM,28.0,10.0,47,30.08,10.0,WNW,6.9,-,0.00,,Clear,300,2013-01-03 18:53:00
2:53 PM,28.0,10.0,47,30.08,10.0,West,5.8,-,N/A,,Clear,260,2013-01-03 19:53:00
3:53 PM,27.0,9.0,47,30.08,10.0,West,4.6,-,N/A,,Clear,270,2013-01-03 20:53:00
4:53 PM,25.0,9.0,51,30.08,10.0,Calm,Calm,-,N/A,,Clear,0,2013-01-03 21:53:00
5:53 PM,19.9,9.0,62,30.08,10.0,Calm,Calm,-,N/A,,Clear,0,2013-01-03 22:53:00
6:53 PM,19.9,12.0,71,30.09,10.0,Calm,Calm,-,N/A,,Mostly Cloudy,0,2013-01-03 23:53:00
7:53 PM,19.0,14.0,81,30.08,10.0,Calm,Calm,-,N/A,,Overcast,0,2013-01-04 00:53:00
8:53 PM,21.0,14.0,74,30.08,10.0,Calm,Calm,-,N/A,,Overcast,0,2013-01-04 01:53:00
9:53 PM,18.0,12.9,81,30.07,10.0,Calm,Calm,-,N/A,,Mostly Cloudy,0,2013-01-04 02:53:00
10:53 PM,19.9,12.9,74,30.07,8.0,Calm,Calm,-,N/A,,Overcast,0,2013-01-04 03:53:00
11:53 PM,19.0,14.0,81,30.04,7.0,Calm,Calm,-,N/A,,Scattered Clouds,0,2013-01-04 04:53:00